createdAt,value
2023-05-14T00:01:15.221Z,80218.44
2023-05-14T00:02:56.680Z,80219.56
2023-05-14T00:04:38.266Z,80223.44
2023-05-14T00:06:19.731Z,80216.63
2023-05-14T00:08:01.033Z,80219.50
2023-05-14T00:09:42.335Z,80216.38
2023-05-14T00:11:23.691Z,80206.56
2023-05-14T00:13:04.990Z,80208.00
2023-05-14T00:14:46.275Z,80209.25
2023-05-14T00:16:27.630Z,80212.16
2023-05-14T00:18:08.994Z,80216.56
2023-05-14T00:19:50.331Z,80209.53
2023-05-14T00:21:31.660Z,80206.22
2023-05-14T00:23:12.983Z,80204.09
2023-05-14T00:24:54.290Z,80207.53
2023-05-14T00:26:35.625Z,80203.63
2023-05-14T00:28:16.949Z,80199.16
2023-05-14T00:29:58.234Z,80202.41
2023-05-14T00:31:39.586Z,80205.88
2023-05-14T00:33:20.882Z,80203.53
2023-05-14T00:35:02.225Z,80205.19
2023-05-14T00:36:43.577Z,80194.03
2023-05-14T00:38:24.863Z,80195.09
2023-05-14T00:40:06.178Z,80194.00
2023-05-14T00:41:47.482Z,80188.88
2023-05-14T00:43:28.755Z,80196.44
2023-05-14T00:45:10.050Z,80200.41
2023-05-14T00:46:51.361Z,80194.78
2023-05-14T00:48:32.664Z,80195.00
2023-05-14T00:50:13.968Z,80193.50
2023-05-14T00:51:55.272Z,80184.88
2023-05-14T00:53:36.536Z,80191.75
2023-05-14T00:55:17.864Z,80190.09
2023-05-14T00:56:59.177Z,80177.88
2023-05-14T00:58:40.443Z,80183.88
2023-05-14T01:00:21.872Z,80181.75
2023-05-14T01:02:03.394Z,80183.19
2023-05-14T01:03:44.765Z,80184.53
2023-05-14T01:05:26.141Z,80181.09
2023-05-14T01:07:07.456Z,80183.06
2023-05-14T01:08:48.749Z,80180.63
2023-05-14T01:10:30.061Z,80182.44
2023-05-14T01:12:11.408Z,80193.44
2023-05-14T01:13:52.740Z,80191.59
2023-05-14T01:15:34.074Z,80183.75
2023-05-14T01:17:15.403Z,80178.94
2023-05-14T01:18:56.729Z,80174.31
2023-05-14T01:20:38.124Z,80175.88
2023-05-14T01:22:19.459Z,80177.69
2023-05-14T01:24:00.910Z,80172.41
2023-05-14T01:25:42.251Z,80176.38
2023-05-14T01:27:23.575Z,80170.09
2023-05-14T01:29:04.912Z,80173.66
2023-05-14T01:30:46.230Z,80174.47
2023-05-14T01:32:27.562Z,80178.78
2023-05-14T01:34:08.856Z,80171.41
2023-05-14T01:35:50.181Z,80177.81
2023-05-14T01:37:31.482Z,80176.59
2023-05-14T01:39:12.787Z,80177.75
2023-05-14T01:40:54.146Z,80185.47
2023-05-14T01:42:35.515Z,80175.38
2023-05-14T01:44:16.837Z,80181.13
2023-05-14T01:45:58.204Z,80175.44
2023-05-14T01:47:39.547Z,80179.75
2023-05-14T01:49:20.872Z,80165.47
2023-05-14T01:51:02.171Z,80174.34
2023-05-14T01:52:43.496Z,80164.19
2023-05-14T01:54:24.814Z,80174.81
2023-05-14T01:56:06.166Z,80173.97
2023-05-14T01:57:47.569Z,80158.94
2023-05-14T01:59:28.933Z,80166.09
2023-05-14T02:01:10.273Z,80170.34
2023-05-14T02:02:51.606Z,80172.59
2023-05-14T02:04:32.895Z,80162.63
2023-05-14T02:06:14.193Z,80162.84
2023-05-14T02:07:55.516Z,80162.91
2023-05-14T02:09:36.831Z,80163.31
2023-05-14T02:11:18.117Z,80165.50
2023-05-14T02:12:59.509Z,80163.59
2023-05-14T02:14:40.810Z,80160.47
2023-05-14T02:16:22.285Z,80159.69
2023-05-14T02:18:03.695Z,80157.63
2023-05-14T02:19:45.099Z,80159.34
2023-05-14T02:21:26.394Z,80155.75
2023-05-14T02:23:07.694Z,80159.81
2023-05-14T02:24:48.988Z,80163.91
2023-05-14T02:26:30.319Z,80160.69
2023-05-14T02:28:11.728Z,80165.81
2023-05-14T02:29:53.001Z,80159.38
2023-05-14T02:31:34.326Z,80163.59
2023-05-14T02:33:15.733Z,80158.25
2023-05-14T02:34:57.113Z,80156.19
2023-05-14T02:36:38.391Z,80164.78
2023-05-14T02:38:19.673Z,80160.88
2023-05-14T02:40:00.983Z,80152.81
2023-05-14T02:41:42.311Z,80156.91
2023-05-14T02:43:23.619Z,80154.91
2023-05-14T02:45:04.907Z,80150.88
2023-05-14T02:46:46.218Z,80152.72
2023-05-14T02:48:27.522Z,80147.16
2023-05-14T02:50:08.817Z,80148.41
2023-05-14T02:51:50.130Z,80151.88
2023-05-14T02:53:31.474Z,80152.78
2023-05-14T02:55:12.780Z,80146.94
2023-05-14T02:56:54.079Z,80145.22
2023-05-14T02:58:35.380Z,80150.75
2023-05-14T03:00:16.680Z,80138.91
2023-05-14T03:01:58.516Z,80141.75
2023-05-14T03:03:40.289Z,80145.41
2023-05-14T03:05:22.034Z,80137.25
2023-05-14T03:07:03.344Z,80143.41
2023-05-14T03:08:44.637Z,80145.44
2023-05-14T03:10:26.104Z,80139.91
2023-05-14T03:12:07.543Z,80143.81
2023-05-14T03:13:48.804Z,80138.34
2023-05-14T03:15:30.079Z,80140.06
2023-05-14T03:17:11.616Z,80133.47
2023-05-14T03:18:53.196Z,80138.91
2023-05-14T03:20:34.529Z,80136.59
2023-05-14T03:22:15.837Z,80139.63
2023-05-14T03:23:57.120Z,80133.59
2023-05-14T03:25:38.401Z,80136.50
2023-05-14T03:27:19.667Z,80141.13
2023-05-14T03:29:00.970Z,80135.00
2023-05-14T03:30:42.287Z,80129.44
2023-05-14T03:32:23.679Z,80133.22
2023-05-14T03:34:05.004Z,80138.63
2023-05-14T03:35:46.326Z,80138.19
2023-05-14T03:37:27.645Z,80144.75
2023-05-14T03:39:08.920Z,80140.09
2023-05-14T03:40:50.204Z,80135.13
2023-05-14T03:42:31.520Z,80139.56
2023-05-14T03:44:12.795Z,80139.56
2023-05-14T03:45:54.090Z,80140.28
2023-05-14T03:47:35.424Z,80142.06
2023-05-14T03:49:16.720Z,80133.63
2023-05-14T03:50:58.016Z,80134.09
2023-05-14T03:52:39.305Z,80137.59
2023-05-14T03:54:20.614Z,80133.97
2023-05-14T03:56:01.876Z,80133.75
2023-05-14T03:57:43.185Z,80136.00
2023-05-14T03:59:24.476Z,80131.84
2023-05-14T04:01:05.762Z,80131.44
2023-05-14T04:02:47.157Z,80132.81
2023-05-14T04:04:28.538Z,80132.59
2023-05-14T04:06:09.886Z,80129.25
2023-05-14T04:07:51.156Z,80132.00
2023-05-14T04:09:32.501Z,80132.91
2023-05-14T04:11:13.846Z,80126.56
2023-05-14T04:12:55.113Z,80129.50
2023-05-14T04:14:36.387Z,80130.06
2023-05-14T04:16:17.737Z,80124.16
2023-05-14T04:17:59.107Z,80126.34
2023-05-14T04:19:40.426Z,80134.34
2023-05-14T04:21:21.758Z,80129.13
2023-05-14T04:23:03.064Z,80123.56
2023-05-14T04:24:44.405Z,80125.41
2023-05-14T04:26:25.687Z,80129.06
2023-05-14T04:28:06.980Z,80126.88
2023-05-14T04:29:48.238Z,80131.38
2023-05-14T04:31:29.588Z,80125.78
2023-05-14T04:33:11.023Z,80132.03
2023-05-14T04:34:52.337Z,80132.31
2023-05-14T04:36:33.656Z,80133.88
2023-05-14T04:38:14.962Z,80129.69
2023-05-14T04:39:56.250Z,80134.31
2023-05-14T04:41:37.591Z,80138.50
2023-05-14T04:43:18.985Z,80134.34
2023-05-14T04:45:00.281Z,80136.31
2023-05-14T04:46:41.571Z,80134.75
2023-05-14T04:48:22.865Z,80134.66
2023-05-14T04:50:04.138Z,80133.16
2023-05-14T04:51:45.439Z,80130.22
2023-05-14T04:53:26.737Z,80134.88
2023-05-14T04:55:08.038Z,80134.06
2023-05-14T04:56:49.331Z,80138.16
2023-05-14T04:58:32.135Z,80139.03
2023-05-14T05:00:14.975Z,80135.97
2023-05-14T05:01:56.257Z,80136.19
2023-05-14T05:03:37.620Z,80133.50
2023-05-14T05:05:18.979Z,80130.25
2023-05-14T05:07:00.263Z,80132.44
2023-05-14T05:08:41.585Z,80127.94
2023-05-14T05:10:23.163Z,80135.72
2023-05-14T05:12:04.700Z,80135.63
2023-05-14T05:13:46.013Z,80140.84
2023-05-14T05:15:27.325Z,80132.63
2023-05-14T05:17:08.666Z,80134.56
2023-05-14T05:18:50.164Z,80138.38
2023-05-14T05:20:31.544Z,80133.47
2023-05-14T05:22:12.876Z,80136.00
2023-05-14T05:23:54.310Z,80132.97
2023-05-14T05:25:35.641Z,80135.75
2023-05-14T05:27:16.978Z,80136.47
2023-05-14T05:28:58.283Z,80140.16
2023-05-14T05:30:39.598Z,80147.63
2023-05-14T05:32:20.942Z,80145.78
2023-05-14T05:34:02.379Z,80132.63
2023-05-14T05:35:43.685Z,80142.50
2023-05-14T05:37:24.984Z,80134.25
2023-05-14T05:39:06.360Z,80133.97
2023-05-14T05:40:47.641Z,80141.09
2023-05-14T05:42:28.944Z,80143.63
2023-05-14T05:44:10.268Z,80141.63
2023-05-14T05:45:51.567Z,80143.31
2023-05-14T05:47:32.922Z,80145.84
2023-05-14T05:49:14.215Z,80139.56
2023-05-14T05:50:55.499Z,80140.22
2023-05-14T05:52:36.781Z,80143.13
2023-05-14T05:54:18.104Z,80136.44
2023-05-14T05:55:59.433Z,80143.81
2023-05-14T05:57:40.738Z,80138.06
2023-05-14T05:59:22.053Z,80132.53
2023-05-14T06:01:03.363Z,80132.13
2023-05-14T06:02:44.786Z,80135.09
2023-05-14T06:04:26.153Z,80131.66
2023-05-14T06:06:07.449Z,80135.16
2023-05-14T06:07:48.752Z,80123.63
2023-05-14T06:09:30.092Z,80132.13
2023-05-14T06:11:11.360Z,80129.22
2023-05-14T06:12:52.660Z,80128.97
2023-05-14T06:14:33.987Z,80126.34
2023-05-14T06:16:15.414Z,80127.69
2023-05-14T06:17:56.719Z,80119.88
2023-05-14T06:19:38.029Z,80114.78
2023-05-14T06:21:19.332Z,80117.34
2023-05-14T06:23:00.604Z,80113.16
2023-05-14T06:24:41.940Z,80120.09
2023-05-14T06:26:23.209Z,80115.22
2023-05-14T06:28:04.501Z,80105.81
2023-05-14T06:29:45.817Z,80107.94
2023-05-14T06:31:27.176Z,80104.13
2023-05-14T06:33:08.528Z,80108.34
2023-05-14T06:34:49.915Z,80106.56
2023-05-14T06:36:31.205Z,80107.41
2023-05-14T06:38:12.493Z,80108.94
2023-05-14T06:39:54.690Z,80100.44
2023-05-14T06:41:37.058Z,80108.97
2023-05-14T06:43:18.385Z,80116.44
2023-05-14T06:44:59.724Z,80107.78
2023-05-14T06:46:41.033Z,80106.44
2023-05-14T06:48:22.457Z,80105.53
2023-05-14T06:50:03.856Z,80110.28
2023-05-14T06:51:45.156Z,80110.78
2023-05-14T06:53:26.458Z,80109.09
2023-05-14T06:55:07.788Z,80103.84
2023-05-14T06:56:49.103Z,80111.19
2023-05-14T06:58:30.472Z,80109.16
2023-05-14T07:00:11.813Z,80101.25
2023-05-14T07:01:53.164Z,80105.38
2023-05-14T07:03:34.474Z,80100.91
2023-05-14T07:05:15.782Z,80110.06
2023-05-14T07:06:57.222Z,80110.69
2023-05-14T07:08:38.517Z,80104.69
2023-05-14T07:10:19.819Z,80109.59
2023-05-14T07:12:01.112Z,80101.53
2023-05-14T07:13:42.373Z,80099.94
2023-05-14T07:15:23.713Z,80110.88
2023-05-14T07:17:05.111Z,80106.75
2023-05-14T07:18:46.495Z,80103.03
2023-05-14T07:20:27.940Z,80107.66
2023-05-14T07:22:09.295Z,80101.19
2023-05-14T07:23:50.574Z,80109.41
2023-05-14T07:25:31.874Z,80107.91
2023-05-14T07:27:13.167Z,80097.63
2023-05-14T07:28:54.446Z,80102.53
2023-05-14T07:30:35.709Z,80098.56
2023-05-14T07:32:17.049Z,80099.25
2023-05-14T07:33:58.364Z,80105.56
2023-05-14T07:35:39.668Z,80099.03
2023-05-14T07:37:21.978Z,80098.38
2023-05-14T07:39:04.988Z,80097.38
2023-05-14T07:40:46.264Z,80097.44
2023-05-14T07:42:36.001Z,80098.72
2023-05-14T07:44:18.144Z,80098.66
2023-05-14T07:45:59.429Z,80093.28
2023-05-14T07:47:40.938Z,80095.34
2023-05-14T07:49:22.382Z,80093.50
2023-05-14T07:51:03.663Z,80094.91
2023-05-14T07:52:44.973Z,80090.84
2023-05-14T07:54:26.281Z,80096.06
2023-05-14T07:56:07.555Z,80101.28
2023-05-14T07:57:48.837Z,80099.81
2023-05-14T07:59:30.176Z,80104.94
2023-05-14T08:01:11.487Z,80102.38
2023-05-14T08:02:53.081Z,80097.69
2023-05-14T08:04:34.600Z,80098.53
2023-05-14T08:06:15.993Z,80105.31
2023-05-14T08:07:57.462Z,80101.28
2023-05-14T08:09:38.816Z,80108.81
2023-05-14T08:11:20.189Z,80103.47
2023-05-14T08:13:01.492Z,80115.03
2023-05-14T08:14:42.802Z,80108.28
2023-05-14T08:16:24.125Z,80111.41
2023-05-14T08:18:05.511Z,80111.56
2023-05-14T08:19:46.875Z,80108.22
2023-05-14T08:21:28.187Z,80108.97
2023-05-14T08:23:09.483Z,80104.44
2023-05-14T08:24:50.761Z,80104.28
2023-05-14T08:26:32.037Z,80107.25
2023-05-14T08:28:13.340Z,80108.97
2023-05-14T08:29:54.623Z,80107.72
2023-05-14T08:31:35.948Z,80109.69
2023-05-14T08:33:17.251Z,80109.16
2023-05-14T08:34:58.513Z,80110.19
2023-05-14T08:36:39.817Z,80109.50
2023-05-14T08:38:21.168Z,80116.47
2023-05-14T08:40:02.459Z,80102.06
2023-05-14T08:41:43.884Z,80104.28
2023-05-14T08:43:25.211Z,80101.91
2023-05-14T08:45:06.490Z,80099.78
2023-05-14T08:46:47.773Z,80111.06
2023-05-14T08:48:29.195Z,80103.66
2023-05-14T08:50:10.549Z,80096.88
2023-05-14T08:51:51.884Z,80106.06
2023-05-14T08:53:33.174Z,80097.50
2023-05-14T08:55:14.606Z,80097.81
2023-05-14T08:56:55.879Z,80095.88
2023-05-14T08:58:37.172Z,80093.50
2023-05-14T09:00:18.524Z,80095.03
2023-05-14T09:01:59.890Z,80085.97
2023-05-14T09:03:41.309Z,80083.66
2023-05-14T09:05:22.621Z,80089.28
2023-05-14T09:07:03.923Z,80079.16
2023-05-14T09:08:45.263Z,80089.78
2023-05-14T09:10:26.897Z,80092.56
2023-05-14T09:12:08.355Z,80086.78
2023-05-14T09:13:49.713Z,80083.88
2023-05-14T09:15:31.052Z,80085.75
2023-05-14T09:17:12.384Z,80082.00
2023-05-14T09:18:53.688Z,80084.34
2023-05-14T09:20:35.024Z,80081.28
2023-05-14T09:22:16.317Z,80079.34
2023-05-14T09:23:57.611Z,80086.81
2023-05-14T09:25:38.924Z,80082.56
2023-05-14T09:27:20.276Z,80083.75
2023-05-14T09:29:01.544Z,80085.63
2023-05-14T09:30:42.864Z,80084.44
2023-05-14T09:32:24.198Z,80084.53
2023-05-14T09:34:05.505Z,80087.59
2023-05-14T09:35:46.799Z,80078.13
2023-05-14T09:37:28.119Z,80076.13
2023-05-14T09:39:09.409Z,80082.16
2023-05-14T09:40:50.714Z,80080.78
2023-05-14T09:42:32.058Z,80079.28
2023-05-14T09:44:13.357Z,80082.69
2023-05-14T09:45:54.669Z,80075.84
2023-05-14T09:47:36.102Z,80075.63
2023-05-14T09:49:17.453Z,80077.75
2023-05-14T09:50:58.750Z,80065.19
2023-05-14T09:52:40.117Z,80067.34
2023-05-14T09:54:21.516Z,80068.97
2023-05-14T09:56:02.865Z,80066.69
2023-05-14T09:57:44.151Z,80059.00
2023-05-14T09:59:25.448Z,80063.56
2023-05-14T10:01:06.772Z,80057.63
2023-05-14T10:02:48.107Z,80056.72
2023-05-14T10:04:29.467Z,80066.63
2023-05-14T10:06:10.814Z,80064.00
2023-05-14T10:07:52.132Z,80064.66
2023-05-14T10:09:33.437Z,80065.03
2023-05-14T10:11:14.724Z,80063.75
2023-05-14T10:12:56.021Z,80061.34
2023-05-14T10:14:37.332Z,80066.31
2023-05-14T10:16:18.658Z,80064.09
2023-05-14T10:18:00.043Z,80064.09
2023-05-14T10:19:41.368Z,80061.97
2023-05-14T10:21:22.630Z,80062.50
2023-05-14T10:23:03.964Z,80062.56
2023-05-14T10:24:45.325Z,80065.63
2023-05-14T10:26:26.606Z,80063.97
2023-05-14T10:28:07.947Z,80070.59
2023-05-14T10:29:49.246Z,80075.81
2023-05-14T10:31:30.670Z,80083.59
2023-05-14T10:33:12.070Z,80086.13
2023-05-14T10:34:53.550Z,80084.94
2023-05-14T10:36:34.897Z,80083.19
2023-05-14T10:38:16.198Z,80082.34
2023-05-14T10:39:57.514Z,80072.69
2023-05-14T10:41:38.893Z,80078.34
2023-05-14T10:43:20.185Z,80078.78
2023-05-14T10:45:01.496Z,80073.81
2023-05-14T10:46:42.815Z,80074.16
2023-05-14T10:48:24.207Z,80072.78
2023-05-14T10:50:05.578Z,80075.56
2023-05-14T10:51:46.865Z,80071.53
2023-05-14T10:53:28.126Z,80074.94
2023-05-14T10:55:09.464Z,80065.28
2023-05-14T10:56:50.754Z,80059.28
2023-05-14T10:58:32.030Z,80063.44
2023-05-14T11:00:13.329Z,80061.41
2023-05-14T11:01:54.653Z,80056.00
2023-05-14T11:03:35.976Z,80057.41
2023-05-14T11:05:17.645Z,80048.50
2023-05-14T11:06:59.351Z,80043.72
2023-05-14T11:08:40.671Z,80046.84
2023-05-14T11:10:22.271Z,80051.78
2023-05-14T11:12:03.892Z,80041.69
2023-05-14T11:13:45.179Z,80046.78
2023-05-14T11:15:26.564Z,80040.28
2023-05-14T11:17:07.906Z,80040.44
2023-05-14T11:18:49.223Z,80039.19
2023-05-14T11:20:30.561Z,80039.31
2023-05-14T11:22:11.935Z,80034.84
2023-05-14T11:23:53.231Z,80040.41
2023-05-14T11:25:34.514Z,80039.41
2023-05-14T11:27:15.806Z,80036.50
2023-05-14T11:28:57.118Z,80035.69
2023-05-14T11:30:38.416Z,80034.75
2023-05-14T11:32:19.755Z,80026.66
2023-05-14T11:34:01.038Z,80026.00
2023-05-14T11:35:42.330Z,80022.44
2023-05-14T11:37:23.650Z,80019.91
2023-05-14T11:39:04.983Z,80025.38
2023-05-14T11:40:46.289Z,80018.84
2023-05-14T11:42:27.590Z,80015.69
2023-05-14T11:44:09.237Z,80015.66
2023-05-14T11:45:50.570Z,80018.28
2023-05-14T11:47:31.916Z,80018.31
2023-05-14T11:49:13.220Z,80007.25
2023-05-14T11:50:54.477Z,80017.56
2023-05-14T11:52:35.734Z,80011.06
2023-05-14T11:54:17.046Z,80016.97
2023-05-14T11:55:58.385Z,80029.50
2023-05-14T11:57:39.722Z,80033.88
2023-05-14T11:59:21.020Z,80030.69
2023-05-14T12:01:02.333Z,80034.41
2023-05-14T12:02:43.762Z,80036.81
2023-05-14T12:04:25.218Z,80038.91
2023-05-14T12:06:06.550Z,80036.09
2023-05-14T12:07:47.947Z,80038.13
2023-05-14T12:09:29.306Z,80031.41
2023-05-14T12:11:10.590Z,80033.09
2023-05-14T12:12:51.861Z,80029.78
2023-05-14T12:14:33.154Z,80028.03
2023-05-14T12:16:14.486Z,80025.75
2023-05-14T12:17:55.880Z,80032.19
2023-05-14T12:19:37.212Z,80027.00
2023-05-14T12:21:18.534Z,80028.28
2023-05-14T12:22:59.862Z,80014.75
2023-05-14T12:24:41.155Z,80021.91
2023-05-14T12:26:22.418Z,80015.69
2023-05-14T12:28:03.717Z,80007.91
2023-05-14T12:29:44.994Z,80010.44
2023-05-14T12:31:26.308Z,80003.97
2023-05-14T12:33:07.714Z,80002.03
2023-05-14T12:34:49.038Z,79994.03
2023-05-14T12:36:30.326Z,80000.59
2023-05-14T12:38:11.610Z,79998.72
2023-05-14T12:39:52.932Z,79999.91
2023-05-14T12:41:34.225Z,79994.47
2023-05-14T12:43:15.541Z,79988.81
2023-05-14T12:44:56.903Z,79988.97
2023-05-14T12:46:38.247Z,79996.53
2023-05-14T12:48:19.602Z,80001.72
2023-05-14T12:50:00.963Z,79992.50
2023-05-14T12:51:42.227Z,79988.09
2023-05-14T12:53:23.476Z,79981.41
2023-05-14T12:55:04.775Z,79973.13
2023-05-14T12:56:46.085Z,79983.00
2023-05-14T12:58:27.426Z,79973.09
2023-05-14T13:00:08.830Z,79983.41
2023-05-14T13:01:50.362Z,79984.16
2023-05-14T13:03:31.642Z,79980.81
2023-05-14T13:05:12.975Z,79989.03
2023-05-14T13:06:54.367Z,79984.13
2023-05-14T13:08:35.713Z,79980.28
2023-05-14T13:10:17.052Z,79965.38
2023-05-14T13:11:58.364Z,79962.22
2023-05-14T13:13:39.689Z,79960.00
2023-05-14T13:15:21.070Z,79959.31
2023-05-14T13:17:02.527Z,79958.56
2023-05-14T13:18:43.907Z,79959.31
2023-05-14T13:20:25.205Z,79948.50
2023-05-14T13:22:06.499Z,79953.78
2023-05-14T13:23:47.802Z,79958.06
2023-05-14T13:25:29.096Z,79958.22
2023-05-14T13:27:10.382Z,79957.56
2023-05-14T13:28:51.671Z,79962.13
2023-05-14T13:30:32.981Z,79967.94
2023-05-14T13:32:14.249Z,79978.88
2023-05-14T13:33:55.532Z,79975.66
2023-05-14T13:35:36.844Z,79982.00
2023-05-14T13:37:18.132Z,79976.53
2023-05-14T13:38:59.402Z,79986.06
2023-05-14T13:40:40.691Z,79974.44
2023-05-14T13:42:21.995Z,79980.09
2023-05-14T13:44:03.300Z,79980.13
2023-05-14T13:45:44.625Z,79986.03
2023-05-14T13:47:25.964Z,79985.34
2023-05-14T13:49:07.319Z,79993.03
2023-05-14T13:50:48.625Z,79995.72
2023-05-14T13:52:29.917Z,79996.50
2023-05-14T13:54:11.223Z,79989.19
2023-05-14T13:55:52.583Z,79989.97
2023-05-14T13:57:33.853Z,79978.75
2023-05-14T13:59:15.155Z,79978.28
2023-05-14T14:00:56.454Z,79975.59
2023-05-14T14:02:37.791Z,79972.44
2023-05-14T14:04:19.110Z,79971.00
2023-05-14T14:06:00.408Z,79969.28
2023-05-14T14:07:41.673Z,79979.50
2023-05-14T14:09:22.956Z,79969.84
2023-05-14T14:11:04.220Z,79967.34
2023-05-14T14:12:45.572Z,79966.13
2023-05-14T14:14:26.883Z,79960.78
2023-05-14T14:16:08.232Z,79961.97
2023-05-14T14:17:49.567Z,79965.13
2023-05-14T14:19:30.916Z,79961.31
2023-05-14T14:21:12.195Z,79970.28
2023-05-14T14:22:53.482Z,79968.69
2023-05-14T14:24:34.767Z,79970.13
2023-05-14T14:26:16.123Z,79966.84
2023-05-14T14:27:57.421Z,79966.63
2023-05-14T14:29:38.826Z,79972.94
2023-05-14T14:31:20.221Z,79971.41
2023-05-14T14:33:01.585Z,79966.84
2023-05-14T14:34:42.915Z,79971.72
2023-05-14T14:36:24.236Z,79973.03
2023-05-14T14:38:05.519Z,79967.56
2023-05-14T14:39:46.811Z,79970.81
2023-05-14T14:41:28.132Z,79976.66
2023-05-14T14:43:09.421Z,79984.09
2023-05-14T14:44:50.717Z,79981.41
2023-05-14T14:46:32.121Z,79986.03
2023-05-14T14:48:13.562Z,79977.06
2023-05-14T14:49:54.896Z,79974.38
2023-05-14T14:51:36.168Z,79980.34
2023-05-14T14:53:17.477Z,79976.88
2023-05-14T14:54:58.728Z,79976.94
2023-05-14T14:56:39.999Z,79979.50
2023-05-14T14:58:21.352Z,79983.94
2023-05-14T15:00:02.852Z,79980.94
2023-05-14T15:01:44.244Z,79985.84
2023-05-14T15:03:25.851Z,79987.31
2023-05-14T15:05:07.349Z,79989.41
2023-05-14T15:06:48.636Z,79984.09
2023-05-14T15:08:29.936Z,79984.56
2023-05-14T15:10:11.257Z,79988.09
2023-05-14T15:11:52.530Z,79992.19
2023-05-14T15:13:33.842Z,79993.91
2023-05-14T15:15:15.183Z,79993.53
2023-05-14T15:16:56.510Z,79997.88
2023-05-14T15:18:37.918Z,80001.34
2023-05-14T15:20:19.315Z,79994.97
2023-05-14T15:22:00.574Z,80002.06
2023-05-14T15:23:41.861Z,79989.56
2023-05-14T15:25:23.367Z,79991.13
2023-05-14T15:27:04.799Z,80000.19
2023-05-14T15:28:46.084Z,79999.88
2023-05-14T15:30:27.396Z,79999.38
2023-05-14T15:32:08.680Z,80009.88
2023-05-14T15:33:49.976Z,80003.78
2023-05-14T15:35:31.307Z,80006.34
2023-05-14T15:37:12.591Z,80005.47
2023-05-14T15:38:53.886Z,80007.59
2023-05-14T15:40:35.194Z,80008.47
2023-05-14T15:42:16.487Z,80014.41
2023-05-14T15:43:57.784Z,80016.25
2023-05-14T15:45:39.102Z,80013.00
2023-05-14T15:47:20.414Z,80014.97
2023-05-14T15:49:01.695Z,80013.59
2023-05-14T15:50:42.984Z,80007.84
2023-05-14T15:52:24.325Z,80013.69
2023-05-14T15:54:05.650Z,80019.94
2023-05-14T15:55:46.930Z,80017.22
2023-05-14T15:57:28.210Z,80013.91
2023-05-14T15:59:09.510Z,80015.75
2023-05-14T16:00:50.780Z,80014.66
2023-05-14T16:02:32.251Z,80021.75
2023-05-14T16:04:13.631Z,80019.56
2023-05-14T16:05:54.965Z,80019.31
2023-05-14T16:07:36.294Z,80024.25
2023-05-14T16:09:17.634Z,80020.16
2023-05-14T16:10:58.905Z,80013.06
2023-05-14T16:12:40.252Z,80021.75
2023-05-14T16:14:21.553Z,80034.84
2023-05-14T16:16:02.837Z,80027.47
2023-05-14T16:17:44.190Z,80033.06
2023-05-14T16:19:26.011Z,80021.44
2023-05-14T16:21:07.311Z,80027.31
2023-05-14T16:22:48.581Z,80022.00
2023-05-14T16:24:29.888Z,80032.03
2023-05-14T16:26:11.147Z,80025.34
2023-05-14T16:27:52.452Z,80021.75
2023-05-14T16:29:33.760Z,80032.13
2023-05-14T16:31:15.046Z,80034.22
2023-05-14T16:32:56.341Z,80033.75
2023-05-14T16:34:37.671Z,80044.81
2023-05-14T16:36:18.997Z,80035.38
2023-05-14T16:38:00.274Z,80029.13
2023-05-14T16:39:41.560Z,80034.88
2023-05-14T16:41:22.870Z,80024.06
2023-05-14T16:43:04.197Z,80027.31
2023-05-14T16:44:45.501Z,80035.31
2023-05-14T16:46:26.831Z,80036.34
2023-05-14T16:48:08.208Z,80033.06
2023-05-14T16:49:49.603Z,80039.00
2023-05-14T16:51:30.918Z,80033.13
2023-05-14T16:53:12.210Z,80033.16
2023-05-14T16:54:53.534Z,80036.19
2023-05-14T16:56:34.804Z,80037.66
2023-05-14T16:58:16.084Z,80032.44
2023-05-14T16:59:57.418Z,80035.09
2023-05-14T17:01:38.734Z,80040.31
2023-05-14T17:03:20.071Z,80039.41
2023-05-14T17:05:01.556Z,80038.09
2023-05-14T17:06:42.920Z,80043.91
2023-05-14T17:08:24.208Z,80037.28
2023-05-14T17:10:05.586Z,80037.16
2023-05-14T17:11:46.913Z,80034.66
2023-05-14T17:13:28.821Z,80034.84
2023-05-14T17:15:10.380Z,80043.38
2023-05-14T17:16:51.664Z,80035.84
2023-05-14T17:18:33.096Z,80042.84
2023-05-14T17:20:16.778Z,80042.19
2023-05-14T17:21:58.733Z,80038.06
2023-05-14T17:23:40.032Z,80042.78
2023-05-14T17:25:21.535Z,80032.56
2023-05-14T17:27:03.234Z,80044.63
2023-05-14T17:28:44.670Z,80035.94
2023-05-14T17:30:26.018Z,80042.13
2023-05-14T17:32:08.496Z,80042.75
2023-05-14T17:33:49.833Z,80043.41
2023-05-14T17:35:31.171Z,80040.91
2023-05-14T17:37:12.634Z,80041.00
2023-05-14T17:38:53.917Z,80042.19
2023-05-14T17:40:35.209Z,80046.69
2023-05-14T17:42:17.046Z,80045.53
2023-05-14T17:43:58.788Z,80045.13
2023-05-14T17:45:53.279Z,80054.34
2023-05-14T17:47:35.965Z,80055.03
2023-05-14T17:49:17.499Z,80057.19
2023-05-14T17:50:58.865Z,80053.09
2023-05-14T17:52:40.394Z,80062.84
2023-05-14T17:54:22.243Z,80061.59
2023-05-14T17:56:03.723Z,80075.22
2023-05-14T17:57:45.035Z,80068.84
2023-05-14T17:59:26.376Z,80068.66
2023-05-14T18:01:08.105Z,80066.81
2023-05-14T18:02:49.786Z,80070.56
2023-05-14T18:04:31.126Z,80067.34
2023-05-14T18:06:12.424Z,80073.47
2023-05-14T18:07:53.810Z,80072.28
2023-05-14T18:09:35.121Z,80082.28
2023-05-14T18:11:17.089Z,80086.53
2023-05-14T18:12:58.575Z,80084.56
2023-05-14T18:14:40.084Z,80088.94
2023-05-14T18:16:21.568Z,80088.47
2023-05-14T18:18:02.974Z,80089.91
2023-05-14T18:19:44.496Z,80089.38
2023-05-14T18:21:25.993Z,80100.66
2023-05-14T18:23:07.359Z,80096.47
2023-05-14T18:24:48.798Z,80090.56
2023-05-14T18:26:32.209Z,80092.69
2023-05-14T18:28:14.925Z,80098.34
2023-05-14T18:29:56.431Z,80096.72
2023-05-14T18:31:37.892Z,80090.94
2023-05-14T18:33:19.441Z,80103.19
2023-05-14T18:35:01.019Z,80100.09
2023-05-14T18:36:42.318Z,80102.84
2023-05-14T18:38:23.840Z,80112.00
2023-05-14T18:40:05.369Z,80097.75
2023-05-14T18:41:46.740Z,80098.44
2023-05-14T18:43:28.089Z,80103.47
2023-05-14T18:45:09.626Z,80100.00
2023-05-14T18:46:51.235Z,80107.91
2023-05-14T18:48:32.784Z,80106.00
2023-05-14T18:50:14.061Z,80096.47
2023-05-14T18:51:55.389Z,80104.28
2023-05-14T18:53:36.740Z,80107.25
2023-05-14T18:55:18.029Z,80100.91
2023-05-14T18:56:59.533Z,80101.63
2023-05-14T18:58:40.864Z,80114.94
2023-05-14T19:00:22.130Z,80106.38
2023-05-14T19:02:03.536Z,80106.47
2023-05-14T19:03:45.340Z,80111.41
2023-05-14T19:05:27.119Z,80111.63
2023-05-14T19:07:08.514Z,80106.13
2023-05-14T19:08:50.078Z,80111.97
2023-05-14T19:10:31.600Z,80109.78
2023-05-14T19:12:13.207Z,80110.16
2023-05-14T19:13:54.759Z,80117.41
2023-05-14T19:15:36.272Z,80114.69
2023-05-14T19:17:19.203Z,80119.97
2023-05-14T19:19:02.033Z,80121.44
2023-05-14T19:20:43.555Z,80125.22
2023-05-14T19:22:25.152Z,80125.22
2023-05-14T19:24:06.460Z,80119.78
2023-05-14T19:25:47.786Z,80127.06
2023-05-14T19:27:29.110Z,80126.84
2023-05-14T19:29:10.436Z,80131.41
2023-05-14T19:30:51.757Z,80130.53
2023-05-14T19:32:33.124Z,80130.66
2023-05-14T19:34:14.407Z,80141.94
2023-05-14T19:35:56.351Z,80138.75
2023-05-14T19:37:37.896Z,80138.84
2023-05-14T19:39:19.497Z,80133.19
2023-05-14T19:41:01.034Z,80134.47
2023-05-14T19:42:42.300Z,80139.50
2023-05-14T19:44:23.622Z,80135.28
2023-05-14T19:46:06.398Z,80133.63
2023-05-14T19:47:48.085Z,80131.53
2023-05-14T19:49:29.463Z,80129.75
2023-05-14T19:51:10.770Z,80136.56